sensor_id;sensor_type;location;lat;lon;timestamp;pressure;altitude;pressure_sealevel;temperature;humidity
47761;BME280;33524;55.434;38.520;2023-10-08T00:01:31;96977.38;;;5.73;86.94
47761;BME280;33524;55.434;38.520;2023-10-08T00:04:01;96968.25;;;5.69;86.11
47761;BME280;33524;55.434;38.520;2023-10-08T00:06:32;96983.91;;;5.77;86.47
47761;BME280;33524;55.434;38.520;2023-10-08T00:09:00;96983.25;;;5.75;85.64
47761;BME280;33524;55.434;38.520;2023-10-08T00:11:35;96979.66;;;5.68;85.17
47761;BME280;33524;55.434;38.520;2023-10-08T00:14:19;96983.09;;;5.69;84.56
47761;BME280;33524;55.434;38.520;2023-10-08T00:16:49;96982.09;;;5.61;84.05
47761;BME280;33524;55.434;38.520;2023-10-08T00:19:17;96978.84;;;5.59;84.91
47761;BME280;33524;55.434;38.520;2023-10-08T00:21:46;96984.56;;;5.55;84.63
47761;BME280;33524;55.434;38.520;2023-10-08T00:24:17;96987.16;;;5.55;85.57
47761;BME280;33524;55.434;38.520;2023-10-08T00:26:45;96987.47;;;5.52;85.07
47761;BME280;33524;55.434;38.520;2023-10-08T00:29:14;96961.75;;;5.49;85.36
47761;BME280;33524;55.434;38.520;2023-10-08T00:31:46;96988.97;;;5.54;85.01
47761;BME280;33524;55.434;38.520;2023-10-08T00:34:17;96989.13;;;5.53;85.04
47761;BME280;33524;55.434;38.520;2023-10-08T00:36:48;96989.75;;;5.46;84.59
47761;BME280;33524;55.434;38.520;2023-10-08T00:39:19;96990.06;;;5.43;84.59
47761;BME280;33524;55.434;38.520;2023-10-08T00:41:55;96992.22;;;5.48;84.37
47761;BME280;33524;55.434;38.520;2023-10-08T00:44:33;96997.91;;;5.52;84.52
47761;BME280;33524;55.434;38.520;2023-10-08T00:47:11;96990.72;;;5.45;82.71
47761;BME280;33524;55.434;38.520;2023-10-08T00:49:40;96998.41;;;5.55;83.42
47761;BME280;33524;55.434;38.520;2023-10-08T00:52:22;97003.09;;;5.52;82.42
47761;BME280;33524;55.434;38.520;2023-10-08T00:54:58;96995.94;;;5.54;83.49
47761;BME280;33524;55.434;38.520;2023-10-08T00:57:33;96996.59;;;5.47;83.53
47761;BME280;33524;55.434;38.520;2023-10-08T01:00:07;96994.97;;;5.46;83.60
47761;BME280;33524;55.434;38.520;2023-10-08T01:02:50;96995.47;;;5.50;83.97
47761;BME280;33524;55.434;38.520;2023-10-08T01:05:31;97001.81;;;5.47;83.27
47761;BME280;33524;55.434;38.520;2023-10-08T01:08:11;96998.22;;;5.40;82.37
47761;BME280;33524;55.434;38.520;2023-10-08T01:10:58;96974.44;;;5.27;82.88
47761;BME280;33524;55.434;38.520;2023-10-08T01:13:30;96997.59;;;5.46;83.74
47761;BME280;33524;55.434;38.520;2023-10-08T01:16:04;96995.12;;;5.45;83.67
47761;BME280;33524;55.434;38.520;2023-10-08T01:18:33;96994.62;;;5.33;83.12
47761;BME280;33524;55.434;38.520;2023-10-08T01:21:03;96995.78;;;5.31;83.49
47761;BME280;33524;55.434;38.520;2023-10-08T01:23:36;96993.00;;;5.32;84.36
47761;BME280;33524;55.434;38.520;2023-10-08T01:26:07;96991.84;;;5.26;84.25
47761;BME280;33524;55.434;38.520;2023-10-08T01:28:39;96990.22;;;5.17;84.27
47761;BME280;33524;55.434;38.520;2023-10-08T01:31:10;96993.59;;;4.93;84.39
47761;BME280;33524;55.434;38.520;2023-10-08T01:33:40;96990.84;;;4.95;85.93
47761;BME280;33524;55.434;38.520;2023-10-08T01:36:15;96993.25;;;4.80;86.72
47761;BME280;33524;55.434;38.520;2023-10-08T01:38:43;96980.97;;;4.64;85.37
47761;BME280;33524;55.434;38.520;2023-10-08T01:41:17;96989.87;;;4.53;85.69
47761;BME280;33524;55.434;38.520;2023-10-08T01:43:54;96992.81;;;4.58;86.91
47761;BME280;33524;55.434;38.520;2023-10-08T01:46:22;96976.06;;;4.53;85.63
47761;BME280;33524;55.434;38.520;2023-10-08T01:48:50;96993.81;;;4.57;85.34
47761;BME280;33524;55.434;38.520;2023-10-08T01:51:24;96989.94;;;4.70;84.52
47761;BME280;33524;55.434;38.520;2023-10-08T01:53:54;96986.03;;;4.65;84.01
47761;BME280;33524;55.434;38.520;2023-10-08T01:56:26;96986.72;;;4.76;83.50
47761;BME280;33524;55.434;38.520;2023-10-08T01:58:54;96997.19;;;4.92;81.97
47761;BME280;33524;55.434;38.520;2023-10-08T02:01:23;97011.03;;;5.01;82.19
47761;BME280;33524;55.434;38.520;2023-10-08T02:03:51;97009.09;;;5.03;80.29
47761;BME280;33524;55.434;38.520;2023-10-08T02:06:20;97005.66;;;5.02;81.08
47761;BME280;33524;55.434;38.520;2023-10-08T02:08:48;96992.00;;;5.00;79.89
47761;BME280;33524;55.434;38.520;2023-10-08T02:11:17;96996.22;;;5.01;81.44
47761;BME280;33524;55.434;38.520;2023-10-08T02:13:45;97000.91;;;4.98;81.92
47761;BME280;33524;55.434;38.520;2023-10-08T02:16:18;97001.91;;;4.97;80.24
47761;BME280;33524;55.434;38.520;2023-10-08T02:18:47;96994.19;;;4.79;79.49
47761;BME280;33524;55.434;38.520;2023-10-08T02:21:18;97001.97;;;4.71;81.47
47761;BME280;33524;55.434;38.520;2023-10-08T02:23:46;96998.22;;;4.65;81.58
47761;BME280;33524;55.434;38.520;2023-10-08T02:26:14;97001.28;;;4.60;82.13
47761;BME280;33524;55.434;38.520;2023-10-08T02:28:43;96995.34;;;4.42;81.88
47761;BME280;33524;55.434;38.520;2023-10-08T02:31:11;96997.47;;;4.38;81.63
47761;BME280;33524;55.434;38.520;2023-10-08T02:33:40;97007.41;;;4.43;83.15
47761;BME280;33524;55.434;38.520;2023-10-08T02:36:08;97012.81;;;4.50;85.13
47761;BME280;33524;55.434;38.520;2023-10-08T02:38:38;97016.03;;;4.43;82.54
47761;BME280;33524;55.434;38.520;2023-10-08T02:41:07;97001.22;;;4.44;81.85
47761;BME280;33524;55.434;38.520;2023-10-08T02:43:35;97006.47;;;4.52;81.28
47761;BME280;33524;55.434;38.520;2023-10-08T02:46:04;97020.97;;;4.55;80.77
47761;BME280;33524;55.434;38.520;2023-10-08T02:48:35;97016.44;;;4.57;81.22
47761;BME280;33524;55.434;38.520;2023-10-08T02:51:03;97016.25;;;4.58;80.73
47761;BME280;33524;55.434;38.520;2023-10-08T02:53:44;97004.59;;;4.71;80.85
47761;BME280;33524;55.434;38.520;2023-10-08T02:56:12;97007.84;;;4.73;81.79
47761;BME280;33524;55.434;38.520;2023-10-08T02:58:41;96998.06;;;4.67;80.19
47761;BME280;33524;55.434;38.520;2023-10-08T03:01:11;97005.37;;;4.71;81.41
47761;BME280;33524;55.434;38.520;2023-10-08T03:03:40;96993.53;;;4.77;82.06
47761;BME280;33524;55.434;38.520;2023-10-08T03:06:13;96998.69;;;4.60;79.57
47761;BME280;33524;55.434;38.520;2023-10-08T03:08:42;96997.72;;;4.61;78.93
47761;BME280;33524;55.434;38.520;2023-10-08T03:11:10;96997.06;;;4.59;78.25
47761;BME280;33524;55.434;38.520;2023-10-08T03:13:45;97002.97;;;4.70;80.64
47761;BME280;33524;55.434;38.520;2023-10-08T03:16:20;97003.75;;;4.62;79.47
47761;BME280;33524;55.434;38.520;2023-10-08T03:18:56;96995.44;;;4.58;78.25
47761;BME280;33524;55.434;38.520;2023-10-08T03:21:25;96993.00;;;4.65;81.04
47761;BME280;33524;55.434;38.520;2023-10-08T03:24:05;97006.31;;;4.54;78.43
47761;BME280;33524;55.434;38.520;2023-10-08T03:27:12;97005.75;;;4.42;80.07
47761;BME280;33524;55.434;38.520;2023-10-08T03:29:48;97002.97;;;4.35;78.88
47761;BME280;33524;55.434;38.520;2023-10-08T03:32:17;97004.44;;;4.38;80.86
47761;BME280;33524;55.434;38.520;2023-10-08T03:34:47;97002.41;;;4.23;79.06
47761;BME280;33524;55.434;38.520;2023-10-08T03:37:18;97011.19;;;4.22;79.36
47761;BME280;33524;55.434;38.520;2023-10-08T03:39:50;97000.44;;;4.17;80.05
47761;BME280;33524;55.434;38.520;2023-10-08T03:42:22;97010.50;;;4.12;80.26
47761;BME280;33524;55.434;38.520;2023-10-08T03:44:52;97014.38;;;4.08;80.00
47761;BME280;33524;55.434;38.520;2023-10-08T03:47:24;97015.31;;;4.07;80.26
47761;BME280;33524;55.434;38.520;2023-10-08T03:49:54;97016.97;;;4.08;81.04
47761;BME280;33524;55.434;38.520;2023-10-08T03:52:22;97020.56;;;4.15;81.62
47761;BME280;33524;55.434;38.520;2023-10-08T03:54:53;97017.94;;;4.07;80.71
47761;BME280;33524;55.434;38.520;2023-10-08T03:57:40;97013.37;;;4.09;81.77
47761;BME280;33524;55.434;38.520;2023-10-08T04:00:12;97010.53;;;3.94;80.49
47761;BME280;33524;55.434;38.520;2023-10-08T04:02:45;97027.31;;;4.00;81.07
47761;BME280;33524;55.434;38.520;2023-10-08T04:05:23;97012.00;;;3.97;81.36
47761;BME280;33524;55.434;38.520;2023-10-08T04:07:55;97014.50;;;4.07;81.45
47761;BME280;33524;55.434;38.520;2023-10-08T04:10:31;97016.59;;;4.03;80.10
47761;BME280;33524;55.434;38.520;2023-10-08T04:13:18;97005.44;;;4.11;81.22
47761;BME280;33524;55.434;38.520;2023-10-08T04:15:47;97014.50;;;4.07;80.91
47761;BME280;33524;55.434;38.520;2023-10-08T04:18:15;97008.44;;;3.98;80.35
47761;BME280;33524;55.434;38.520;2023-10-08T04:20:44;96998.56;;;4.01;81.29
47761;BME280;33524;55.434;38.520;2023-10-08T04:23:28;97017.69;;;4.18;80.47
47761;BME280;33524;55.434;38.520;2023-10-08T04:25:57;97013.94;;;4.21;80.82
47761;BME280;33524;55.434;38.520;2023-10-08T04:28:26;97012.16;;;4.21;80.95
47761;BME280;33524;55.434;38.520;2023-10-08T04:31:01;97018.94;;;4.40;81.84
47761;BME280;33524;55.434;38.520;2023-10-08T04:33:44;97011.47;;;4.45;79.56
47761;BME280;33524;55.434;38.520;2023-10-08T04:36:12;97014.38;;;4.34;79.68
47761;BME280;33524;55.434;38.520;2023-10-08T04:38:46;97020.22;;;4.36;79.38
47761;BME280;33524;55.434;38.520;2023-10-08T04:41:16;97021.69;;;4.39;78.95
47761;BME280;33524;55.434;38.520;2023-10-08T04:43:47;97018.56;;;4.61;80.73
47761;BME280;33524;55.434;38.520;2023-10-08T04:46:17;97026.53;;;4.68;81.02
47761;BME280;33524;55.434;38.520;2023-10-08T04:49:04;97017.19;;;4.49;79.34
47761;BME280;33524;55.434;38.520;2023-10-08T04:51:45;97010.16;;;4.41;79.95
47761;BME280;33524;55.434;38.520;2023-10-08T04:54:16;97014.19;;;4.36;79.75
47761;BME280;33524;55.434;38.520;2023-10-08T04:56:44;97024.09;;;4.32;79.27
47761;BME280;33524;55.434;38.520;2023-10-08T04:59:13;97011.59;;;4.36;78.75
47761;BME280;33524;55.434;38.520;2023-10-08T05:01:41;97024.31;;;4.39;77.60
47761;BME280;33524;55.434;38.520;2023-10-08T05:04:16;97019.38;;;4.36;78.38
47761;BME280;33524;55.434;38.520;2023-10-08T05:07:00;97018.47;;;4.45;78.61
47761;BME280;33524;55.434;38.520;2023-10-08T05:09:32;97012.56;;;4.35;77.76
47761;BME280;33524;55.434;38.520;2023-10-08T05:12:15;97027.00;;;4.29;78.01
47761;BME280;33524;55.434;38.520;2023-10-08T05:15:03;97022.84;;;4.36;79.63
47761;BME280;33524;55.434;38.520;2023-10-08T05:17:46;97023.81;;;4.43;79.01
47761;BME280;33524;55.434;38.520;2023-10-08T05:20:19;97024.59;;;4.36;76.98
47761;BME280;33524;55.434;38.520;2023-10-08T05:23:16;97020.72;;;4.40;78.09
47761;BME280;33524;55.434;38.520;2023-10-08T05:25:58;97022.41;;;4.49;78.30
47761;BME280;33524;55.434;38.520;2023-10-08T05:28:26;97024.72;;;4.60;79.04
47761;BME280;33524;55.434;38.520;2023-10-08T05:30:54;97030.72;;;4.61;79.01
47761;BME280;33524;55.434;38.520;2023-10-08T05:33:40;97031.88;;;4.58;76.89
47761;BME280;33524;55.434;38.520;2023-10-08T05:36:27;97036.81;;;4.70;77.01
47761;BME280;33524;55.434;38.520;2023-10-08T05:39:19;97040.94;;;4.54;76.25
47761;BME280;33524;55.434;38.520;2023-10-08T05:42:01;97043.13;;;4.67;76.58
47761;BME280;33524;55.434;38.520;2023-10-08T05:44:45;97043.34;;;4.74;77.21
47761;BME280;33524;55.434;38.520;2023-10-08T05:47:28;97041.53;;;4.74;77.13
47761;BME280;33524;55.434;38.520;2023-10-08T05:50:07;97042.78;;;4.62;75.32
47761;BME280;33524;55.434;38.520;2023-10-08T05:52:48;97050.66;;;4.78;76.36
47761;BME280;33524;55.434;38.520;2023-10-08T05:55:27;97057.06;;;4.92;77.92
47761;BME280;33524;55.434;38.520;2023-10-08T05:58:05;97053.81;;;4.90;76.97
47761;BME280;33524;55.434;38.520;2023-10-08T06:00:47;97061.16;;;4.95;77.59
47761;BME280;33524;55.434;38.520;2023-10-08T06:03:19;97064.09;;;5.08;77.54
47761;BME280;33524;55.434;38.520;2023-10-08T06:06:08;97064.09;;;5.08;77.23
47761;BME280;33524;55.434;38.520;2023-10-08T06:08:40;97072.06;;;4.98;77.40
47761;BME280;33524;55.434;38.520;2023-10-08T06:11:41;97071.44;;;5.04;79.70
47761;BME280;33524;55.434;38.520;2023-10-08T06:14:12;97068.53;;;5.16;78.21
47761;BME280;33524;55.434;38.520;2023-10-08T06:16:41;97077.91;;;4.92;78.23
47761;BME280;33524;55.434;38.520;2023-10-08T06:19:12;97077.06;;;4.92;77.78
47761;BME280;33524;55.434;38.520;2023-10-08T06:21:42;97078.59;;;5.02;78.90
47761;BME280;33524;55.434;38.520;2023-10-08T06:24:10;97090.37;;;5.15;77.50
47761;BME280;33524;55.434;38.520;2023-10-08T06:26:45;97082.87;;;5.20;79.14
47761;BME280;33524;55.434;38.520;2023-10-08T06:29:16;97072.38;;;4.95;77.78
47761;BME280;33524;55.434;38.520;2023-10-08T06:31:58;97080.28;;;4.85;78.44
47761;BME280;33524;55.434;38.520;2023-10-08T06:34:30;97087.91;;;4.79;77.90
47761;BME280;33524;55.434;38.520;2023-10-08T06:36:59;97084.88;;;4.92;79.28
47761;BME280;33524;55.434;38.520;2023-10-08T06:39:29;97074.97;;;4.95;78.93
47761;BME280;33524;55.434;38.520;2023-10-08T06:42:23;97083.97;;;5.09;79.73
47761;BME280;33524;55.434;38.520;2023-10-08T06:44:55;97089.91;;;4.85;78.56
47761;BME280;33524;55.434;38.520;2023-10-08T06:47:26;97081.69;;;5.06;79.06
47761;BME280;33524;55.434;38.520;2023-10-08T06:49:56;97073.44;;;5.27;78.61
47761;BME280;33524;55.434;38.520;2023-10-08T06:52:26;97080.47;;;5.35;78.39
47761;BME280;33524;55.434;38.520;2023-10-08T06:54:56;97071.94;;;5.16;77.27
47761;BME280;33524;55.434;38.520;2023-10-08T06:57:25;97074.63;;;5.41;77.49
47761;BME280;33524;55.434;38.520;2023-10-08T06:59:54;97067.47;;;5.68;77.46
47761;BME280;33524;55.434;38.520;2023-10-08T07:02:23;97070.44;;;5.81;76.38
47761;BME280;33524;55.434;38.520;2023-10-08T07:04:54;97079.22;;;5.88;75.11
47761;BME280;33524;55.434;38.520;2023-10-08T07:07:24;97073.69;;;6.07;73.66
47761;BME280;33524;55.434;38.520;2023-10-08T07:09:56;97064.88;;;6.33;74.61
47761;BME280;33524;55.434;38.520;2023-10-08T07:12:29;97072.69;;;5.51;71.70
47761;BME280;33524;55.434;38.520;2023-10-08T07:15:02;97075.13;;;5.53;73.64
47761;BME280;33524;55.434;38.520;2023-10-08T07:17:32;97066.19;;;5.63;72.52
47761;BME280;33524;55.434;38.520;2023-10-08T07:20:08;97084.94;;;5.67;72.92
47761;BME280;33524;55.434;38.520;2023-10-08T07:22:50;97083.91;;;5.60;69.74
47761;BME280;33524;55.434;38.520;2023-10-08T07:25:21;97089.00;;;5.86;71.20
47761;BME280;33524;55.434;38.520;2023-10-08T07:27:50;97082.50;;;6.15;70.69
47761;BME280;33524;55.434;38.520;2023-10-08T07:30:18;97096.03;;;6.35;70.78
47761;BME280;33524;55.434;38.520;2023-10-08T07:32:55;97100.78;;;6.31;69.26
47761;BME280;33524;55.434;38.520;2023-10-08T07:35:23;97092.72;;;6.57;69.47
47761;BME280;33524;55.434;38.520;2023-10-08T07:37:55;97112.00;;;5.91;68.79
47761;BME280;33524;55.434;38.520;2023-10-08T07:40:23;97090.16;;;5.75;69.52
47761;BME280;33524;55.434;38.520;2023-10-08T07:42:57;97103.03;;;5.69;70.86
47761;BME280;33524;55.434;38.520;2023-10-08T07:45:29;97096.81;;;5.61;71.27
47761;BME280;33524;55.434;38.520;2023-10-08T07:48:04;97093.72;;;5.82;71.00
47761;BME280;33524;55.434;38.520;2023-10-08T07:50:42;97099.56;;;5.68;69.67
47761;BME280;33524;55.434;38.520;2023-10-08T07:53:12;97101.97;;;5.45;71.17
47761;BME280;33524;55.434;38.520;2023-10-08T07:55:46;97103.50;;;5.89;72.69
47761;BME280;33524;55.434;38.520;2023-10-08T07:58:16;97096.16;;;5.68;70.90
47761;BME280;33524;55.434;38.520;2023-10-08T08:00:44;97117.00;;;5.59;72.31
47761;BME280;33524;55.434;38.520;2023-10-08T08:03:29;97114.13;;;5.79;72.02
47761;BME280;33524;55.434;38.520;2023-10-08T08:06:09;97123.72;;;5.86;69.35
47761;BME280;33524;55.434;38.520;2023-10-08T08:08:38;97119.16;;;5.80;73.75
47761;BME280;33524;55.434;38.520;2023-10-08T08:11:07;97135.16;;;5.26;71.24
47761;BME280;33524;55.434;38.520;2023-10-08T08:13:41;97143.37;;;5.05;70.34
47761;BME280;33524;55.434;38.520;2023-10-08T08:16:13;97142.72;;;5.46;71.50
47761;BME280;33524;55.434;38.520;2023-10-08T08:18:46;97141.44;;;5.50;71.79
47761;BME280;33524;55.434;38.520;2023-10-08T08:21:17;97140.22;;;5.28;69.75
47761;BME280;33524;55.434;38.520;2023-10-08T08:23:48;97139.00;;;5.14;70.76
47761;BME280;33524;55.434;38.520;2023-10-08T08:26:18;97152.47;;;5.36;73.70
47761;BME280;33524;55.434;38.520;2023-10-08T08:29:01;97151.28;;;5.89;75.38
47761;BME280;33524;55.434;38.520;2023-10-08T08:31:30;97152.06;;;5.73;73.38
47761;BME280;33524;55.434;38.520;2023-10-08T08:34:06;97166.47;;;5.43;73.10
47761;BME280;33524;55.434;38.520;2023-10-08T08:36:42;97159.22;;;5.20;71.54
47761;BME280;33524;55.434;38.520;2023-10-08T08:39:16;97163.59;;;5.12;72.70
47761;BME280;33524;55.434;38.520;2023-10-08T08:41:59;97156.19;;;5.25;72.59
47761;BME280;33524;55.434;38.520;2023-10-08T08:44:31;97165.06;;;5.57;72.38
47761;BME280;33524;55.434;38.520;2023-10-08T08:47:04;97165.69;;;5.42;71.37
47761;BME280;33524;55.434;38.520;2023-10-08T08:49:36;97156.91;;;5.60;70.88
47761;BME280;33524;55.434;38.520;2023-10-08T08:52:14;97163.69;;;5.95;74.82
47761;BME280;33524;55.434;38.520;2023-10-08T08:54:43;97172.59;;;5.76;69.67
47761;BME280;33524;55.434;38.520;2023-10-08T08:57:11;97172.50;;;5.43;71.31
47761;BME280;33524;55.434;38.520;2023-10-08T08:59:51;97173.53;;;4.82;72.82
47761;BME280;33524;55.434;38.520;2023-10-08T09:02:33;97176.69;;;4.94;73.41
47761;BME280;33524;55.434;38.520;2023-10-08T09:05:19;97171.56;;;4.32;74.16
47761;BME280;33524;55.434;38.520;2023-10-08T09:08:05;97175.78;;;4.77;75.41
47761;BME280;33524;55.434;38.520;2023-10-08T09:10:43;97188.44;;;4.72;76.71
47761;BME280;33524;55.434;38.520;2023-10-08T09:13:23;97189.69;;;4.41;76.19
47761;BME280;33524;55.434;38.520;2023-10-08T09:16:24;97181.59;;;4.44;77.07
47761;BME280;33524;55.434;38.520;2023-10-08T09:18:58;97184.41;;;4.51;79.77
47761;BME280;33524;55.434;38.520;2023-10-08T09:21:28;97201.00;;;4.32;78.48
47761;BME280;33524;55.434;38.520;2023-10-08T09:24:03;97180.94;;;4.24;79.03
47761;BME280;33524;55.434;38.520;2023-10-08T09:26:37;97201.00;;;4.32;78.83
47761;BME280;33524;55.434;38.520;2023-10-08T09:29:11;97217.38;;;4.42;77.31
47761;BME280;33524;55.434;38.520;2023-10-08T09:31:40;97190.06;;;4.47;76.14
47761;BME280;33524;55.434;38.520;2023-10-08T09:34:20;97195.31;;;4.81;77.04
47761;BME280;33524;55.434;38.520;2023-10-08T09:36:53;97194.56;;;5.15;75.50
47761;BME280;33524;55.434;38.520;2023-10-08T09:39:32;97206.47;;;4.91;73.59
47761;BME280;33524;55.434;38.520;2023-10-08T09:42:04;97202.53;;;5.13;73.60
47761;BME280;33524;55.434;38.520;2023-10-08T09:44:40;97223.00;;;4.82;74.46
47761;BME280;33524;55.434;38.520;2023-10-08T09:47:12;97209.91;;;5.26;72.75
47761;BME280;33524;55.434;38.520;2023-10-08T09:52:24;97201.75;;;5.21;74.44
47761;BME280;33524;55.434;38.520;2023-10-08T09:55:09;97213.25;;;5.95;73.48
47761;BME280;33524;55.434;38.520;2023-10-08T09:57:41;97207.91;;;6.21;70.89
47761;BME280;33524;55.434;38.520;2023-10-08T10:00:10;97211.25;;;5.81;69.78
47761;BME280;33524;55.434;38.520;2023-10-08T10:02:47;97216.69;;;5.96;69.98
47761;BME280;33524;55.434;38.520;2023-10-08T10:05:19;97206.81;;;5.65;71.25
47761;BME280;33524;55.434;38.520;2023-10-08T10:07:55;97219.31;;;5.53;70.98
47761;BME280;33524;55.434;38.520;2023-10-08T10:10:27;97218.56;;;5.35;71.07
47761;BME280;33524;55.434;38.520;2023-10-08T10:13:16;97212.78;;;6.00;73.27
47761;BME280;33524;55.434;38.520;2023-10-08T10:15:47;97222.94;;;5.26;70.77
47761;BME280;33524;55.434;38.520;2023-10-08T10:18:28;97211.87;;;5.32;70.87
47761;BME280;33524;55.434;38.520;2023-10-08T10:23:47;97224.78;;;5.34;71.30
47761;BME280;33524;55.434;38.520;2023-10-08T10:26:32;97235.53;;;5.81;70.22
47761;BME280;33524;55.434;38.520;2023-10-08T10:31:45;97219.75;;;5.83;69.43
47761;BME280;33524;55.434;38.520;2023-10-08T10:34:25;97223.56;;;6.21;69.22
47761;BME280;33524;55.434;38.520;2023-10-08T10:36:59;97226.69;;;6.33;68.49
47761;BME280;33524;55.434;38.520;2023-10-08T10:39:37;97219.66;;;6.25;68.06
47761;BME280;33524;55.434;38.520;2023-10-08T10:42:13;97222.56;;;5.98;68.71
47761;BME280;33524;55.434;38.520;2023-10-08T10:45:23;97208.16;;;5.85;71.19
47761;BME280;33524;55.434;38.520;2023-10-08T10:48:30;97214.38;;;5.93;73.40
47761;BME280;33524;55.434;38.520;2023-10-08T10:51:05;97222.00;;;5.78;69.91
47761;BME280;33524;55.434;38.520;2023-10-08T10:53:40;97225.03;;;5.57;69.13
47761;BME280;33524;55.434;38.520;2023-10-08T10:56:32;97229.22;;;5.50;70.51
47761;BME280;33524;55.434;38.520;2023-10-08T10:59:12;97232.50;;;5.17;71.03
47761;BME280;33524;55.434;38.520;2023-10-08T11:01:49;97239.69;;;5.23;71.01
47761;BME280;33524;55.434;38.520;2023-10-08T11:04:42;97232.41;;;5.35;73.27
47761;BME280;33524;55.434;38.520;2023-10-08T11:07:25;97228.88;;;4.84;72.03
47761;BME280;33524;55.434;38.520;2023-10-08T11:09:59;97237.59;;;5.27;73.38
47761;BME280;33524;55.434;38.520;2023-10-08T11:12:39;97223.88;;;5.59;73.99
47761;BME280;33524;55.434;38.520;2023-10-08T11:15:31;97233.03;;;5.29;72.14
47761;BME280;33524;55.434;38.520;2023-10-08T11:18:21;97223.53;;;5.97;69.38
47761;BME280;33524;55.434;38.520;2023-10-08T11:21:17;97216.50;;;5.46;71.12
47761;BME280;33524;55.434;38.520;2023-10-08T11:23:52;97228.63;;;5.21;71.37
47761;BME280;33524;55.434;38.520;2023-10-08T11:26:25;97227.37;;;5.34;70.70
47761;BME280;33524;55.434;38.520;2023-10-08T11:29:04;97239.34;;;4.92;72.22
47761;BME280;33524;55.434;38.520;2023-10-08T11:31:36;97244.38;;;4.94;73.11
47761;BME280;33524;55.434;38.520;2023-10-08T11:34:13;97241.13;;;5.18;72.95
47761;BME280;33524;55.434;38.520;2023-10-08T11:36:52;97237.47;;;5.02;72.02
47761;BME280;33524;55.434;38.520;2023-10-08T11:39:25;97235.81;;;5.28;73.13
47761;BME280;33524;55.434;38.520;2023-10-08T11:42:01;97230.72;;;5.18;71.47
47761;BME280;33524;55.434;38.520;2023-10-08T11:44:41;97222.69;;;5.11;74.09
47761;BME280;33524;55.434;38.520;2023-10-08T11:47:12;97224.91;;;4.72;72.33
47761;BME280;33524;55.434;38.520;2023-10-08T11:49:51;97226.47;;;4.64;72.32
47761;BME280;33524;55.434;38.520;2023-10-08T11:52:42;97233.66;;;4.71;73.90
47761;BME280;33524;55.434;38.520;2023-10-08T11:55:15;97246.75;;;4.79;74.10
47761;BME280;33524;55.434;38.520;2023-10-08T11:57:52;97239.31;;;4.84;74.36
47761;BME280;33524;55.434;38.520;2023-10-08T12:00:26;97254.28;;;4.46;75.71
47761;BME280;33524;55.434;38.520;2023-10-08T12:03:18;97263.53;;;3.95;76.33
47761;BME280;33524;55.434;38.520;2023-10-08T12:06:04;97263.88;;;4.28;76.98
47761;BME280;33524;55.434;38.520;2023-10-08T12:08:40;97250.53;;;3.95;77.31
47761;BME280;33524;55.434;38.520;2023-10-08T12:11:28;97245.81;;;4.44;78.22
47761;BME280;33524;55.434;38.520;2023-10-08T12:14:03;97243.94;;;4.54;77.47
47761;BME280;33524;55.434;38.520;2023-10-08T12:16:35;97239.84;;;4.70;73.41
47761;BME280;33524;55.434;38.520;2023-10-08T12:19:43;97246.00;;;4.69;72.71
47761;BME280;33524;55.434;38.520;2023-10-08T12:22:13;97253.00;;;4.86;73.22
47761;BME280;33524;55.434;38.520;2023-10-08T12:24:50;97246.78;;;4.87;74.30
47761;BME280;33524;55.434;38.520;2023-10-08T12:27:25;97253.28;;;4.83;72.69
47761;BME280;33524;55.434;38.520;2023-10-08T12:30:01;97256.63;;;4.75;72.79
47761;BME280;33524;55.434;38.520;2023-10-08T12:32:40;97255.13;;;4.29;72.69
47761;BME280;33524;55.434;38.520;2023-10-08T12:35:13;97258.59;;;4.19;73.64
47761;BME280;33524;55.434;38.520;2023-10-08T12:37:44;97252.03;;;4.69;76.19
47761;BME280;33524;55.434;38.520;2023-10-08T12:40:33;97279.72;;;4.16;75.56
47761;BME280;33524;55.434;38.520;2023-10-08T12:43:16;97279.06;;;3.59;77.05
47761;BME280;33524;55.434;38.520;2023-10-08T12:45:49;97279.59;;;3.62;78.25
47761;BME280;33524;55.434;38.520;2023-10-08T12:48:32;97272.13;;;3.77;79.05
47761;BME280;33524;55.434;38.520;2023-10-08T12:51:03;97282.75;;;3.66;80.43
47761;BME280;33524;55.434;38.520;2023-10-08T12:53:43;97272.63;;;3.91;80.28
47761;BME280;33524;55.434;38.520;2023-10-08T12:56:23;97277.44;;;3.58;81.75
47761;BME280;33524;55.434;38.520;2023-10-08T12:59:02;97274.13;;;3.28;82.42
47761;BME280;33524;55.434;38.520;2023-10-08T13:01:39;97277.81;;;3.26;82.45
47761;BME280;33524;55.434;38.520;2023-10-08T13:04:29;97278.06;;;3.32;81.73
47761;BME280;33524;55.434;38.520;2023-10-08T13:07:24;97266.16;;;3.02;83.31
47761;BME280;33524;55.434;38.520;2023-10-08T13:10:17;97273.78;;;3.03;84.15
47761;BME280;33524;55.434;38.520;2023-10-08T13:12:48;97280.87;;;3.01;83.54
47761;BME280;33524;55.434;38.520;2023-10-08T13:15:31;97283.62;;;3.47;84.43
47761;BME280;33524;55.434;38.520;2023-10-08T13:18:07;97281.44;;;3.05;83.55
47761;BME280;33524;55.434;38.520;2023-10-08T13:20:42;97286.72;;;3.23;84.07
47761;BME280;33524;55.434;38.520;2023-10-08T13:23:17;97275.91;;;3.28;83.43
47761;BME280;33524;55.434;38.520;2023-10-08T13:25:58;97274.44;;;3.06;82.77
47761;BME280;33524;55.434;38.520;2023-10-08T13:28:35;97278.81;;;3.15;83.81
47761;BME280;33524;55.434;38.520;2023-10-08T13:31:10;97276.91;;;3.07;83.21
47761;BME280;33524;55.434;38.520;2023-10-08T13:33:43;97277.84;;;3.16;83.57
47761;BME280;33524;55.434;38.520;2023-10-08T13:36:38;97280.94;;;2.92;83.87
47761;BME280;33524;55.434;38.520;2023-10-08T13:39:19;97285.38;;;3.19;83.83
47761;BME280;33524;55.434;38.520;2023-10-08T13:42:03;97280.22;;;3.37;84.46
47761;BME280;33524;55.434;38.520;2023-10-08T13:44:37;97277.50;;;2.91;83.54
47761;BME280;33524;55.434;38.520;2023-10-08T13:47:09;97262.09;;;2.80;85.84
47761;BME280;33524;55.434;38.520;2023-10-08T13:49:44;97280.00;;;2.73;85.90
47761;BME280;33524;55.434;38.520;2023-10-08T13:52:18;97281.50;;;2.56;86.00